createdAt,value
2022-11-28T00:01:28.632Z,7.53
2022-11-28T00:03:56.547Z,8.80
2022-11-28T00:06:27.001Z,7.63
2022-11-28T00:08:55.441Z,7.43
2022-11-28T00:11:23.406Z,7.60
2022-11-28T00:13:51.209Z,8.10
2022-11-28T00:16:22.244Z,8.77
2022-11-28T00:18:51.180Z,7.87
2022-11-28T00:21:19.828Z,8.17
2022-11-28T00:23:49.563Z,8.17
2022-11-28T00:26:21.467Z,7.03
2022-11-28T00:28:49.492Z,7.10
2022-11-28T00:31:19.364Z,7.73
2022-11-28T00:33:47.351Z,7.33
2022-11-28T00:36:15.187Z,8.37
2022-11-28T00:38:43.494Z,8.07
2022-11-28T00:41:14.481Z,8.90
2022-11-28T00:43:42.504Z,7.47
2022-11-28T00:46:10.957Z,7.67
2022-11-28T00:48:38.975Z,7.60
2022-11-28T00:51:08.433Z,9.03
2022-11-28T00:53:36.258Z,8.33
2022-11-28T00:56:05.679Z,7.50
2022-11-28T00:58:35.385Z,8.57
2022-11-28T01:01:08.866Z,8.27
2022-11-28T01:03:36.716Z,7.50
2022-11-28T01:06:04.864Z,8.67
2022-11-28T01:08:32.830Z,9.10
2022-11-28T01:11:01.311Z,7.80
2022-11-28T01:13:29.318Z,7.70
2022-11-28T01:15:59.530Z,9.27
2022-11-28T01:18:27.408Z,8.73
2022-11-28T01:20:55.214Z,9.37
2022-11-28T01:23:23.055Z,9.63
2022-11-28T01:25:50.898Z,8.83
2022-11-28T01:28:18.928Z,9.43
2022-11-28T01:30:46.727Z,9.57
2022-11-28T01:33:16.135Z,9.70
2022-11-28T01:35:43.963Z,9.70
2022-11-28T01:38:11.758Z,9.60
2022-11-28T01:40:46.484Z,9.53
2022-11-28T01:43:14.364Z,11.00
2022-11-28T01:45:42.498Z,9.97
2022-11-28T01:48:13.104Z,8.90
2022-11-28T01:50:43.834Z,10.77
2022-11-28T01:53:12.148Z,10.03
2022-11-28T01:55:54.159Z,8.90
2022-11-28T01:58:22.081Z,9.50
2022-11-28T02:00:51.687Z,7.97
2022-11-28T02:03:22.545Z,10.00
2022-11-28T02:05:52.277Z,8.60
2022-11-28T02:08:20.150Z,9.13
2022-11-28T02:11:11.016Z,9.63
2022-11-28T02:13:43.754Z,9.00
2022-11-28T02:16:22.638Z,9.70
2022-11-28T02:19:00.651Z,9.10
2022-11-28T02:21:44.023Z,8.60
2022-11-28T02:24:59.377Z,9.33
2022-11-28T02:27:59.968Z,8.57
2022-11-28T02:30:30.655Z,8.30
2022-11-28T02:33:08.281Z,7.50
2022-11-28T02:35:40.466Z,7.90
2022-11-28T02:38:14.632Z,7.90
2022-11-28T02:40:48.143Z,9.50
2022-11-28T02:43:23.344Z,8.00
2022-11-28T02:45:56.617Z,8.03
2022-11-28T02:48:30.034Z,8.33
2022-11-28T02:51:02.367Z,8.30
2022-11-28T02:53:32.265Z,7.50
2022-11-28T02:56:00.688Z,7.00
2022-11-28T02:58:28.543Z,8.00
2022-11-28T03:00:56.774Z,8.37
2022-11-28T03:03:44.458Z,8.27
2022-11-28T03:06:19.992Z,7.67
2022-11-28T03:09:01.080Z,8.00
2022-11-28T03:11:42.074Z,7.80
2022-11-28T03:14:15.395Z,7.77
2022-11-28T03:16:47.912Z,6.87
2022-11-28T03:19:21.267Z,6.50
2022-11-28T03:21:55.751Z,9.40
2022-11-28T03:24:26.814Z,8.03
2022-11-28T03:26:56.708Z,7.30
2022-11-28T03:29:27.701Z,9.23
2022-11-28T03:31:58.365Z,8.90
2022-11-28T03:34:31.697Z,8.70
2022-11-28T03:37:03.163Z,8.70
2022-11-28T03:39:35.238Z,7.60
2022-11-28T03:42:07.060Z,8.27
2022-11-28T03:44:40.520Z,8.37
2022-11-28T03:47:09.006Z,8.40
2022-11-28T03:49:40.739Z,9.20
2022-11-28T03:52:12.542Z,8.17
2022-11-28T03:54:44.375Z,8.00
2022-11-28T03:57:14.303Z,8.20
2022-11-28T03:59:44.754Z,9.20
2022-11-28T04:02:17.631Z,8.70
2022-11-28T04:04:53.503Z,8.23
2022-11-28T04:07:26.698Z,8.43
2022-11-28T04:10:00.406Z,8.10
2022-11-28T04:12:35.222Z,10.23
2022-11-28T04:15:07.654Z,8.70
2022-11-28T04:17:38.699Z,7.97
2022-11-28T04:20:15.177Z,7.90
2022-11-28T04:22:46.406Z,9.93
2022-11-28T04:25:16.630Z,8.90
2022-11-28T04:27:49.279Z,8.47
2022-11-28T04:30:17.388Z,8.40
2022-11-28T04:32:48.491Z,7.90
2022-11-28T04:35:23.053Z,8.73
2022-11-28T04:37:53.254Z,8.63
2022-11-28T04:40:21.876Z,7.90
2022-11-28T04:42:53.209Z,7.63
2022-11-28T04:45:26.006Z,8.60
2022-11-28T04:47:54.215Z,9.53
2022-11-28T04:50:25.149Z,8.70
2022-11-28T04:52:56.257Z,8.60
2022-11-28T04:55:30.293Z,8.80
2022-11-28T04:58:04.475Z,9.33
2022-11-28T05:00:34.771Z,8.40
2022-11-28T05:03:02.817Z,9.27
2022-11-28T05:05:32.257Z,8.80
2022-11-28T05:08:00.351Z,7.93
2022-11-28T05:10:28.519Z,8.10
2022-11-28T05:12:56.293Z,8.60
2022-11-28T05:15:24.102Z,9.43
2022-11-28T05:17:52.011Z,8.10
2022-11-28T05:20:19.915Z,9.70
2022-11-28T05:22:49.358Z,8.00
2022-11-28T05:25:17.397Z,8.93
2022-11-28T05:27:45.493Z,8.17
2022-11-28T05:30:14.938Z,7.30
2022-11-28T05:32:42.844Z,8.50
2022-11-28T05:35:10.693Z,8.47
2022-11-28T05:37:38.781Z,9.13
2022-11-28T05:40:09.331Z,7.73
2022-11-28T05:42:37.661Z,9.73
2022-11-28T05:45:06.081Z,8.50
2022-11-28T05:47:34.464Z,8.30
2022-11-28T05:50:02.461Z,8.50
2022-11-28T05:52:32.180Z,8.73
2022-11-28T05:55:01.535Z,8.97
2022-11-28T05:57:32.626Z,7.63
2022-11-28T06:00:00.443Z,8.50
2022-11-28T06:02:28.240Z,8.13
2022-11-28T06:04:56.186Z,7.97
2022-11-28T06:07:24.096Z,7.97
2022-11-28T06:09:51.992Z,8.43
2022-11-28T06:12:19.840Z,8.43
2022-11-28T06:14:49.047Z,7.63
2022-11-28T06:17:16.862Z,9.10
2022-11-28T06:19:45.164Z,8.60
2022-11-28T06:22:13.120Z,9.43
2022-11-28T06:24:40.901Z,10.50
2022-11-28T06:27:08.760Z,9.07
2022-11-28T06:29:36.896Z,8.40
2022-11-28T06:32:06.161Z,9.53
2022-11-28T06:34:34.439Z,9.53
2022-11-28T06:37:02.357Z,9.83
2022-11-28T06:39:30.224Z,8.97
2022-11-28T06:41:58.081Z,10.50
2022-11-28T06:44:26.141Z,9.57
2022-11-28T06:46:54.677Z,9.70
2022-11-28T06:49:23.872Z,10.00
2022-11-28T06:51:51.685Z,9.00
2022-11-28T06:54:19.516Z,9.30
2022-11-28T06:56:47.310Z,9.70
2022-11-28T06:59:15.134Z,16.97
2022-11-28T07:01:43.066Z,14.90
2022-11-28T07:04:11.209Z,10.17
2022-11-28T07:06:40.434Z,8.50
2022-11-28T07:09:08.324Z,9.10
2022-11-28T07:11:36.106Z,10.00
2022-11-28T07:14:04.321Z,16.37
2022-11-28T07:16:33.720Z,11.30
2022-11-28T07:19:01.842Z,9.67
2022-11-28T07:21:30.183Z,10.60
2022-11-28T07:24:00.690Z,11.87
2022-11-28T07:26:28.735Z,10.37
2022-11-28T07:28:58.224Z,9.20
2022-11-28T07:31:31.811Z,10.00
2022-11-28T07:34:02.108Z,10.67
2022-11-28T07:36:30.359Z,10.60
2022-11-28T07:39:00.852Z,9.37
2022-11-28T07:41:29.339Z,9.73
2022-11-28T07:43:59.002Z,10.27
2022-11-28T07:46:28.436Z,9.40
2022-11-28T07:48:56.593Z,10.47
2022-11-28T07:51:27.201Z,11.60
2022-11-28T07:53:55.187Z,9.90
2022-11-28T07:56:35.159Z,10.60
2022-11-28T07:59:12.821Z,9.10
2022-11-28T08:01:40.757Z,9.90
2022-11-28T08:04:10.012Z,10.53
2022-11-28T08:06:39.778Z,10.07
2022-11-28T08:09:08.139Z,10.73
2022-11-28T08:11:37.722Z,10.37
2022-11-28T08:14:06.542Z,10.60
2022-11-28T08:16:34.691Z,11.27
2022-11-28T08:19:03.148Z,9.50
2022-11-28T08:21:32.233Z,21.77
2022-11-28T08:24:02.163Z,15.83
2022-11-28T08:26:31.395Z,10.70
2022-11-28T08:29:01.345Z,10.90
2022-11-28T08:31:31.355Z,27.00
2022-11-28T08:34:00.945Z,10.90
2022-11-28T08:36:29.461Z,10.30
2022-11-28T08:39:09.848Z,9.00
2022-11-28T08:41:46.139Z,9.93
2022-11-28T08:44:16.141Z,11.43
2022-11-28T08:46:44.078Z,9.87
2022-11-28T08:49:11.840Z,10.30
2022-11-28T08:51:39.652Z,10.47
2022-11-28T08:54:07.593Z,9.90
2022-11-28T08:56:35.573Z,9.37
2022-11-28T08:59:03.533Z,10.67
2022-11-28T09:01:32.988Z,9.80
2022-11-28T09:04:00.900Z,9.10
2022-11-28T09:06:28.797Z,9.40
2022-11-28T09:08:56.652Z,9.97
2022-11-28T09:11:25.077Z,11.37
2022-11-28T09:13:52.949Z,9.10
2022-11-28T09:16:21.029Z,10.07
2022-11-28T09:18:51.086Z,8.40
2022-11-28T09:21:18.980Z,8.83
2022-11-28T09:23:46.831Z,9.93
2022-11-28T09:26:16.666Z,9.90
2022-11-28T09:28:45.110Z,10.03
2022-11-28T09:31:13.857Z,9.00
2022-11-28T09:33:41.871Z,10.10
2022-11-28T09:36:14.254Z,10.70
2022-11-28T09:38:42.429Z,11.40
2022-11-28T09:41:30.663Z,11.10
2022-11-28T09:44:02.128Z,9.77
2022-11-28T09:46:32.669Z,53.73
2022-11-28T09:49:03.026Z,12.47
2022-11-28T09:51:35.887Z,11.10
2022-11-28T09:54:09.266Z,9.30
2022-11-28T09:56:37.254Z,8.57
2022-11-28T09:59:05.638Z,9.83
2022-11-28T10:01:39.357Z,9.13
2022-11-28T10:04:18.527Z,8.50
2022-11-28T10:06:53.289Z,9.90
2022-11-28T10:09:30.199Z,9.67
2022-11-28T10:12:08.012Z,12.30
2022-11-28T10:14:52.126Z,11.60
2022-11-28T10:17:28.557Z,10.40
2022-11-28T10:19:58.604Z,10.50
2022-11-28T10:22:33.407Z,9.13
2022-11-28T10:25:06.591Z,11.37
2022-11-28T10:27:36.613Z,10.30
2022-11-28T10:30:07.913Z,11.23
2022-11-28T10:32:39.780Z,11.07
2022-11-28T10:35:11.544Z,11.40
2022-11-28T10:37:41.182Z,11.07
2022-11-28T10:40:19.388Z,10.53
2022-11-28T10:42:52.164Z,10.60
2022-11-28T10:45:27.591Z,47.70
2022-11-28T10:48:37.974Z,13.53
2022-11-28T10:51:04.043Z,10.77
2022-11-28T10:53:42.321Z,10.30
2022-11-28T10:56:17.219Z,13.17
2022-11-28T10:58:51.608Z,10.47
2022-11-28T11:01:19.698Z,12.17
2022-11-28T11:03:47.715Z,8.83
2022-11-28T11:06:15.622Z,10.20
2022-11-28T11:08:46.662Z,9.70
2022-11-28T11:11:25.489Z,10.73
2022-11-28T11:14:01.584Z,10.57
2022-11-28T11:16:47.774Z,32.00
2022-11-28T11:19:25.487Z,11.77
2022-11-28T11:22:01.645Z,10.60
2022-11-28T11:24:31.153Z,10.07
2022-11-28T11:27:05.580Z,10.57
2022-11-28T11:29:35.865Z,9.73
2022-11-28T11:32:06.366Z,12.57
2022-11-28T11:34:39.362Z,10.30
2022-11-28T11:37:33.227Z,9.60
2022-11-28T11:40:03.955Z,11.07
2022-11-28T11:42:33.519Z,11.30
2022-11-28T11:45:25.449Z,11.17
2022-11-28T11:47:53.235Z,10.63
2022-11-28T11:50:23.166Z,8.67
2022-11-28T11:53:08.212Z,8.80
2022-11-28T11:55:45.188Z,10.60
2022-11-28T11:58:15.691Z,9.70
2022-11-28T12:00:45.553Z,9.50
2022-11-28T12:03:19.854Z,9.80
2022-11-28T12:08:42.583Z,9.17
2022-11-28T12:11:16.716Z,9.40
2022-11-28T12:13:44.887Z,16.03
2022-11-28T12:16:26.530Z,11.60
2022-11-28T12:19:01.306Z,15.80
2022-11-28T12:21:36.453Z,9.23
2022-11-28T12:24:10.188Z,9.87
2022-11-28T12:26:43.420Z,9.73
2022-11-28T12:29:26.404Z,9.13
2022-11-28T12:32:05.286Z,7.93
2022-11-28T12:34:39.400Z,8.90
2022-11-28T12:37:12.313Z,8.23
2022-11-28T12:39:50.265Z,8.87
2022-11-28T12:42:30.758Z,7.67
2022-11-28T12:45:16.527Z,9.17
2022-11-28T12:47:51.495Z,8.10
2022-11-28T12:50:27.563Z,8.87
2022-11-28T12:53:06.465Z,8.13
2022-11-28T12:55:38.142Z,8.27
2022-11-28T12:58:11.504Z,8.50
2022-11-28T13:00:49.417Z,10.77
2022-11-28T13:03:33.491Z,9.97
2022-11-28T13:06:12.216Z,9.53
2022-11-28T13:08:50.018Z,9.00
2022-11-28T13:11:33.664Z,9.50
2022-11-28T13:14:06.887Z,8.40
2022-11-28T13:16:42.848Z,9.57
2022-11-28T13:19:15.969Z,10.80
2022-11-28T13:21:47.935Z,9.37
2022-11-28T13:24:23.963Z,9.60
2022-11-28T13:26:58.906Z,10.50
2022-11-28T13:29:35.094Z,9.60
2022-11-28T13:32:11.772Z,10.93
2022-11-28T13:34:40.142Z,9.40
2022-11-28T13:40:08.235Z,9.77
2022-11-28T13:45:32.689Z,9.40
2022-11-28T13:48:01.281Z,11.23
2022-11-28T13:50:40.814Z,9.33
2022-11-28T13:53:23.234Z,10.43
2022-11-28T13:55:53.227Z,10.17
2022-11-28T13:58:28.336Z,11.80
2022-11-28T14:01:08.617Z,10.83
2022-11-28T14:03:45.046Z,10.73
2022-11-28T14:06:15.718Z,9.90
2022-11-28T14:08:45.386Z,9.53
2022-11-28T14:11:31.076Z,9.90
2022-11-28T14:14:25.543Z,10.43
2022-11-28T14:17:04.999Z,11.27
2022-11-28T14:19:48.745Z,10.37
2022-11-28T14:22:33.158Z,10.00
2022-11-28T14:25:06.192Z,9.90
2022-11-28T14:27:36.021Z,10.47
2022-11-28T14:30:07.742Z,10.00
2022-11-28T14:32:39.243Z,10.70
2022-11-28T14:35:13.351Z,10.77
2022-11-28T14:37:52.977Z,10.80
2022-11-28T14:41:03.107Z,9.60
2022-11-28T14:43:32.460Z,11.30
2022-11-28T14:46:26.923Z,11.80
2022-11-28T14:49:24.473Z,12.03
2022-11-28T14:52:40.266Z,10.43
2022-11-28T14:55:20.502Z,12.10
2022-11-28T14:57:57.494Z,12.53
2022-11-28T15:00:26.917Z,14.73
2022-11-28T15:03:08.327Z,12.43
2022-11-28T15:05:45.662Z,12.60
2022-11-28T15:08:26.115Z,13.33
2022-11-28T15:11:01.099Z,12.87
2022-11-28T15:13:40.881Z,11.23
2022-11-28T15:16:13.123Z,11.97
2022-11-28T15:18:47.054Z,12.00
2022-11-28T15:21:18.065Z,12.53
2022-11-28T15:23:47.705Z,12.20
2022-11-28T15:26:27.948Z,11.37
2022-11-28T15:29:10.373Z,13.77
2022-11-28T15:31:38.996Z,13.23
2022-11-28T15:34:09.842Z,12.87
2022-11-28T15:36:42.484Z,12.30
2022-11-28T15:39:25.193Z,12.63
2022-11-28T15:41:53.803Z,12.40
2022-11-28T15:44:21.947Z,12.03
2022-11-28T15:46:49.883Z,12.53
2022-11-28T15:49:26.203Z,12.07
2022-11-28T15:51:59.615Z,12.33
2022-11-28T15:54:36.352Z,13.20
2022-11-28T15:57:05.733Z,12.47
2022-11-28T15:59:34.766Z,14.23
2022-11-28T16:02:05.757Z,12.40
2022-11-28T16:04:33.742Z,13.67
2022-11-28T16:07:03.449Z,12.20
2022-11-28T16:09:33.896Z,13.70
2022-11-28T16:12:04.011Z,13.60
2022-11-28T16:14:34.264Z,12.00
2022-11-28T16:17:03.975Z,11.80
2022-11-28T16:19:33.403Z,13.47
2022-11-28T16:22:04.194Z,13.20
2022-11-28T16:24:38.833Z,14.13
2022-11-28T16:27:07.374Z,14.27
2022-11-28T16:29:37.053Z,12.77
2022-11-28T16:32:08.915Z,14.60
2022-11-28T16:34:47.651Z,14.90
2022-11-28T16:37:20.963Z,13.20
2022-11-28T16:39:49.134Z,13.77
2022-11-28T16:42:20.123Z,15.73
2022-11-28T16:44:47.965Z,14.87
2022-11-28T16:47:27.533Z,13.13
2022-11-28T16:50:22.991Z,15.43
2022-11-28T16:52:55.647Z,14.53
2022-11-28T16:55:40.660Z,15.47
2022-11-28T16:58:17.715Z,14.90
2022-11-28T17:00:59.030Z,14.00
2022-11-28T17:03:47.721Z,14.87
2022-11-28T17:06:21.623Z,15.73
2022-11-28T17:08:51.067Z,14.23
2022-11-28T17:11:21.567Z,14.20
2022-11-28T17:13:49.512Z,15.70
2022-11-28T17:16:19.939Z,16.40
2022-11-28T17:18:48.172Z,17.50
2022-11-28T17:21:17.573Z,14.93
2022-11-28T17:23:45.772Z,15.70
2022-11-28T17:26:14.956Z,15.47
2022-11-28T17:28:42.781Z,15.23
2022-11-28T17:31:12.787Z,20.40
2022-11-28T17:33:44.666Z,39.77
2022-11-28T17:36:13.393Z,17.10
2022-11-28T17:38:41.184Z,17.17
2022-11-28T17:41:14.601Z,15.70
2022-11-28T17:43:42.713Z,18.20
2022-11-28T17:46:10.781Z,19.40
2022-11-28T17:48:38.679Z,24.13
2022-11-28T17:51:07.012Z,18.53
2022-11-28T17:53:35.151Z,19.40
2022-11-28T17:56:03.108Z,18.10
2022-11-28T17:58:32.827Z,19.17
2022-11-28T18:01:01.168Z,18.40
2022-11-28T18:03:29.413Z,16.40
2022-11-28T18:05:57.234Z,18.73
2022-11-28T18:08:25.188Z,15.87
2022-11-28T18:11:04.238Z,16.57
2022-11-28T18:13:33.698Z,18.50
2022-11-28T18:16:01.785Z,19.40
2022-11-28T18:18:30.373Z,18.47
2022-11-28T18:20:58.461Z,18.37
2022-11-28T18:23:26.318Z,18.83
2022-11-28T18:25:54.127Z,19.90
2022-11-28T18:28:22.903Z,18.50
2022-11-28T18:30:52.272Z,18.40
2022-11-28T18:33:20.330Z,18.90
2022-11-28T18:35:48.336Z,17.90
2022-11-28T18:38:16.198Z,19.63
2022-11-28T18:40:44.007Z,17.17
2022-11-28T18:43:11.904Z,19.73
2022-11-28T18:45:39.772Z,18.53
2022-11-28T18:48:09.810Z,19.30
2022-11-28T18:50:37.656Z,19.67
2022-11-28T18:53:05.448Z,21.40
2022-11-28T18:55:33.508Z,17.13
2022-11-28T18:58:01.623Z,18.60
2022-11-28T19:00:29.355Z,19.10
2022-11-28T19:02:57.239Z,19.63
2022-11-28T19:05:26.435Z,18.90
2022-11-28T19:07:54.265Z,20.67
2022-11-28T19:10:22.109Z,30.37
2022-11-28T19:12:50.206Z,23.70
2022-11-28T19:15:18.466Z,20.97
2022-11-28T19:17:46.491Z,21.87
2022-11-28T19:20:14.798Z,21.73
2022-11-28T19:22:44.293Z,20.63
2022-11-28T19:25:12.188Z,22.87
2022-11-28T19:27:40.029Z,19.30
2022-11-28T19:30:09.168Z,20.43
2022-11-28T19:32:37.328Z,18.50
2022-11-28T19:35:05.514Z,19.83
2022-11-28T19:37:33.811Z,18.30
2022-11-28T19:40:03.662Z,20.63
2022-11-28T19:42:31.797Z,20.47
2022-11-28T19:44:59.581Z,19.87
2022-11-28T19:47:28.081Z,17.57
2022-11-28T19:49:55.952Z,20.10
2022-11-28T19:52:23.793Z,18.83
2022-11-28T19:54:51.747Z,20.57
2022-11-28T19:57:20.909Z,18.97
2022-11-28T19:59:49.122Z,19.70
2022-11-28T20:02:17.645Z,17.77
2022-11-28T20:04:45.495Z,19.07
2022-11-28T20:07:13.604Z,18.90
2022-11-28T20:09:41.974Z,18.80
2022-11-28T20:12:10.063Z,19.93
2022-11-28T20:14:39.377Z,20.10
2022-11-28T20:17:07.289Z,21.70
2022-11-28T20:19:35.492Z,18.80
2022-11-28T20:22:03.461Z,20.20
2022-11-28T20:24:31.448Z,20.00
2022-11-28T20:26:59.452Z,20.57
2022-11-28T20:29:27.933Z,20.40
2022-11-28T20:31:57.981Z,22.10
2022-11-28T20:34:27.409Z,18.80
2022-11-28T20:36:55.298Z,18.83
2022-11-28T20:39:23.436Z,20.07
2022-11-28T20:41:51.264Z,17.33
2022-11-28T20:44:19.217Z,17.67
2022-11-28T20:46:49.438Z,19.60
2022-11-28T20:49:19.058Z,20.33
2022-11-28T20:51:47.344Z,18.10
2022-11-28T20:54:15.604Z,20.30
2022-11-28T20:57:19.077Z,18.47
2022-11-28T20:59:32.639Z,19.90
2022-11-28T21:02:00.544Z,20.90
2022-11-28T21:04:29.872Z,20.63
2022-11-28T21:06:57.733Z,20.40
2022-11-28T21:09:25.690Z,19.67
2022-11-28T21:11:59.008Z,20.73
2022-11-28T21:14:28.522Z,21.73
2022-11-28T21:16:56.652Z,19.50
2022-11-28T21:19:24.664Z,19.73
2022-11-28T21:21:53.930Z,18.33
2022-11-28T21:24:21.825Z,19.50
2022-11-28T21:26:53.891Z,18.50
2022-11-28T21:29:23.741Z,18.00
2022-11-28T21:31:51.594Z,18.90
2022-11-28T21:34:19.779Z,19.20
2022-11-28T21:36:47.854Z,18.37
2022-11-28T21:39:25.034Z,25.57
2022-11-28T21:41:52.914Z,19.80
2022-11-28T21:44:20.807Z,20.20
2022-11-28T21:46:50.036Z,19.63
2022-11-28T21:49:18.101Z,19.00
2022-11-28T21:51:46.463Z,19.13
2022-11-28T21:54:14.374Z,18.60
2022-11-28T21:56:46.484Z,18.47
2022-11-28T21:59:14.511Z,18.60
2022-11-28T22:01:42.469Z,24.97
2022-11-28T22:04:10.913Z,20.37
2022-11-28T22:06:39.629Z,16.40
2022-11-28T22:09:09.786Z,17.77
2022-11-28T22:11:39.984Z,18.47
2022-11-28T22:14:09.695Z,18.23
2022-11-28T22:16:38.325Z,17.67
2022-11-28T22:19:06.443Z,16.23
2022-11-28T22:21:55.289Z,17.53
2022-11-28T22:24:24.637Z,16.70
2022-11-28T22:26:54.379Z,17.60
2022-11-28T22:29:23.741Z,17.20
2022-11-28T22:31:51.646Z,18.17
2022-11-28T22:34:19.731Z,17.40
2022-11-28T22:36:47.617Z,18.57
2022-11-28T22:39:15.498Z,17.27
2022-11-28T22:41:43.408Z,16.50
2022-11-28T22:44:11.818Z,16.97
2022-11-28T22:46:41.229Z,16.37
2022-11-28T22:49:11.611Z,19.07
2022-11-28T22:51:39.835Z,17.40
2022-11-28T22:54:08.304Z,18.80
2022-11-28T22:56:36.229Z,16.97
2022-11-28T22:59:04.796Z,16.60
2022-11-28T23:01:34.661Z,16.87
2022-11-28T23:04:04.399Z,18.23
2022-11-28T23:06:34.334Z,17.70
2022-11-28T23:09:04.579Z,17.57
2022-11-28T23:11:34.054Z,17.03
2022-11-28T23:14:03.296Z,18.33
2022-11-28T23:16:32.949Z,16.63
2022-11-28T23:19:05.350Z,18.17
2022-11-28T23:21:35.146Z,18.00
2022-11-28T23:24:04.378Z,16.50
2022-11-28T23:26:33.769Z,18.50
2022-11-28T23:29:05.181Z,17.20
2022-11-28T23:31:36.208Z,16.50
2022-11-28T23:34:05.702Z,16.63
2022-11-28T23:36:41.542Z,17.03
2022-11-28T23:39:11.856Z,18.10
2022-11-28T23:41:39.938Z,16.50
2022-11-28T23:44:08.265Z,17.30
2022-11-28T23:46:36.949Z,18.73
2022-11-28T23:49:06.312Z,16.97
2022-11-28T23:51:34.530Z,16.33
2022-11-28T23:54:02.398Z,17.37
2022-11-28T23:56:31.607Z,16.97
2022-11-28T23:59:02.132Z,15.43
